Das aktuelle Wetter und Webcams in Palma De Mallorca

Wetterbericht für Palma De Mallorca
Temperature: 21 °C
aktualisiert am: Friday, 26. 08. 2016, at: 23:00:00 GMT
Temperatur: 21° C / (70° F)
Taupunkt 18° C / (64.4° F) no Information
Luftfeuchtigkeit: 82 %
Wind: 0 knots, from: N
Wolken: no Information
Niederschlag: none  
Metar Data : 2016/08/26 23:00 LEPA 262300Z 00000KT CAVOK 21/18 Q1018 NOSIG

Wetterberichte aller Inseln:

Mallorca, Menorca, Ibiza,

5 Tage Wettervorhersage für alle Inseln:


Sprache ändern     Change language     cambiar idioma


Webcams in Palma De Mallorca

Port Soller Es Faro   Son Vida Golf
mallorca   sheraton arabella
Palma de Mallorca   Palma de Mallorca
palma   palma de mallorca

Wissenswertes über Palma De Mallorca